White River, South Dakota
Current Conditions -  °F | °C
As of 1:53 PM on Saturday 20 Dec 2014 (Local Time) from KICR Reporting Station
Broken Clouds Broken Clouds  
Wind Chill: 33°   Ceiling: 10000
Heat Index: 37°   Visibility: 10mi
Dew Point: 28°   Wind: 5mph
Humidity: 70%   Direction: 200°SSW
Pressure: 29.9"   Gusts: NA
Location:  43.57°N, 100.75°W
Report Text: KICR 202053Z AUTO 20004KT 10SM SCT090 BKN100 03/M02 A2990 RMK AO2 SLP148 T00281022 56016
Loading
Personal Weather Stations






























Interactive Weather Map New forecast layout! Learn more

10-Day Weather Forecast

Advertisements
Track Severe Weather on mobile